Time;durP1;ratioP1;P1;durP2;ratioP2;P2;SDS_P1;SDS_P2;PMS_P1;PMS_P2;Temp;Humidity;BMP_temperature;BMP_pressure;BME280_temperature;BME280_humidity;BME280_pressure;Samples;Min_cycle;Max_cycle;Signal;HPM_P1;HPM_P2
2021/07/04 00:00:59;;;;;;;5.53;5.05;;;;;;;20.83;82.00;95494.28;4970443;28;20200;-87
2021/07/04 00:03:25;;;;;;;5.70;5.20;;;;;;;20.87;80.32;95500.63;4970963;28;20669;-86
2021/07/04 00:05:52;;;;;;;5.90;5.40;;;;;;;20.79;84.02;95496.59;4970975;28;20214;-86
2021/07/04 00:08:21;;;;;;;6.20;5.70;;;;;;;20.75;83.91;95494.72;4970761;28;20232;-87
2021/07/04 00:10:51;;;;;;;6.13;5.63;;;;;;;20.79;82.69;95498.44;4970067;28;20197;-86
2021/07/04 00:13:22;;;;;;;6.45;5.85;;;;;;;20.79;81.20;95495.81;4971003;28;20210;-87
2021/07/04 00:15:54;;;;;;;6.25;5.75;;;;;;;20.72;82.80;95493.38;4970531;28;20204;-87
2021/07/04 00:18:25;;;;;;;6.05;5.45;;;;;;;20.63;85.94;95486.97;4970203;28;20719;-87
2021/07/04 00:21:07;;;;;;;6.55;6.03;;;;;;;20.65;84.25;95487.53;4970781;28;20214;-86
2021/07/04 00:24:05;;;;;;;;;;;;;;;;;;;;;
2021/07/04 00:26:53;;;;;;;6.20;5.68;;;;;;;20.66;82.10;95491.72;4955628;28;20208;-86
2021/07/04 00:29:40;;;;;;;6.30;5.80;;;;;;;20.59;84.42;95491.88;4970188;28;20227;-86
2021/07/04 00:35:04;;;;;;;5.60;5.10;;;;;;;20.50;83.62;95480.28;4968475;28;20212;-86
2021/07/04 00:37:35;;;;;;;5.95;5.35;;;;;;;20.47;83.35;95478.13;4970090;28;20279;-87
2021/07/04 00:43:37;;;;;;;6.22;5.72;;;;;;;20.47;84.64;95478.13;4969127;28;20230;-87
2021/07/04 00:46:05;;;;;;;5.65;5.15;;;;;;;20.48;83.30;95477.09;4969999;28;20196;-87
2021/07/04 00:48:31;;;;;;;5.57;5.07;;;;;;;20.50;83.64;95477.66;4970196;28;20255;-87
2021/07/04 00:51:00;;;;;;;5.50;5.07;;;;;;;20.50;82.41;95482.09;4970077;28;20279;-87
2021/07/04 00:53:26;;;;;;;4.68;4.38;;;;;;;20.35;81.46;95482.66;4970209;28;20258;-87
2021/07/04 00:55:53;;;;;;;4.35;4.05;;;;;;;20.28;80.62;95469.72;4969660;28;20592;-86
2021/07/04 00:58:23;;;;;;;5.13;4.32;;;;;;;20.27;81.28;95468.16;4969903;28;20220;-86
2021/07/04 01:00:51;;;;;;;4.40;4.10;;;;;;;20.16;83.74;95471.66;4969737;28;20274;-86
2021/07/04 01:03:18;;;;;;;3.90;3.60;;;;;;;20.15;82.95;95461.44;4969561;28;20208;-85
2021/07/04 01:05:45;;;;;;;4.45;4.10;;;;;;;20.13;84.39;95458.25;4969952;28;20287;-86
2021/07/04 01:08:13;;;;;;;4.50;4.10;;;;;;;20.16;83.77;95460.41;4969601;28;20234;-86
2021/07/04 01:10:40;;;;;;;4.90;4.22;;;;;;;20.12;84.17;95459.28;4969458;28;20196;-86
2021/07/04 01:13:12;;;;;;;4.75;4.35;;;;;;;20.15;82.37;95451.78;4969367;28;20214;-86
2021/07/04 01:15:39;;;;;;;4.63;4.22;;;;;;;20.17;82.30;95446.31;4969800;28;20204;-86
2021/07/04 01:18:11;;;;;;;5.00;4.60;;;;;;;20.19;82.41;95454.69;4969868;28;20224;-87
2021/07/04 01:20:46;;;;;;;5.00;4.43;;;;;;;20.09;84.61;95450.09;4969636;28;20769;-86
2021/07/04 01:23:27;;;;;;;6.03;4.25;;;;;;;20.11;84.39;95447.25;4969296;28;20279;-86
2021/07/04 01:25:55;;;;;;;4.78;4.38;;;;;;;20.13;84.45;95443.38;4969812;28;20193;-86
2021/07/04 01:28:27;;;;;;;5.28;4.85;;;;;;;20.13;85.79;95440.75;4969428;28;20283;-86
2021/07/04 01:31:00;;;;;;;5.07;4.68;;;;;;;20.23;84.96;95445.31;4969479;28;20291;-86
2021/07/04 01:33:27;;;;;;;5.30;4.80;;;;;;;20.27;85.20;95428.13;4969777;28;20641;-86
2021/07/04 01:35:54;;;;;;;5.60;5.10;;;;;;;20.29;85.26;95439.16;4969762;28;20497;-86
2021/07/04 01:38:22;;;;;;;5.65;5.15;;;;;;;20.30;85.86;95438.91;4969962;28;20266;-86
2021/07/04 01:40:55;;;;;;;6.93;5.15;;;;;;;20.34;83.72;95434.78;4969841;28;20196;-85
2021/07/04 01:43:22;;;;;;;5.38;4.97;;;;;;;20.33;84.33;95437.63;4969660;28;20215;-86
2021/07/04 01:45:49;;;;;;;5.43;4.93;;;;;;;20.32;84.59;95434.22;4969586;28;20192;-87
2021/07/04 01:48:16;;;;;;;5.60;5.10;;;;;;;20.26;85.94;95437.78;4969222;28;20239;-86
2021/07/04 01:50:55;;;;;;;5.18;4.78;;;;;;;20.27;85.24;95439.38;4969191;28;20229;-86
2021/07/04 01:53:23;;;;;;;5.22;4.82;;;;;;;20.33;82.52;95435.03;4969151;28;20200;-86
2021/07/04 01:55:52;;;;;;;4.82;4.47;;;;;;;20.33;82.53;95427.97;4968632;28;20238;-87
2021/07/04 01:58:19;;;;;;;4.90;4.50;;;;;;;20.33;82.21;95432.41;4969241;28;20231;-85
2021/07/04 02:00:49;;;;;;;5.50;4.60;;;;;;;20.33;83.02;95427.19;4969253;28;20295;-86
2021/07/04 02:03:16;;;;;;;5.18;4.78;;;;;;;20.35;82.24;95425.13;4968669;28;20196;-86
2021/07/04 02:05:47;;;;;;;4.80;4.40;;;;;;;20.28;82.50;95417.44;4969067;28;20247;-86
2021/07/04 02:08:16;;;;;;;5.13;4.72;;;;;;;20.21;83.13;95418.63;4969054;28;20227;-87
2021/07/04 02:10:45;;;;;;;4.80;4.40;;;;;;;20.22;82.28;95414.97;4970862;28;20192;-86
2021/07/04 02:13:12;;;;;;;5.13;4.72;;;;;;;20.16;83.18;95415.97;4972525;28;20232;-87
2021/07/04 02:15:47;;;;;;;5.00;4.60;;;;;;;20.14;82.58;95418.03;4972692;28;20212;-86
2021/07/04 02:18:16;;;;;;;5.07;4.68;;;;;;;20.12;84.38;95417.47;4972841;28;20220;-86
2021/07/04 02:20:45;;;;;;;5.03;4.63;;;;;;;20.15;83.50;95419.59;4972906;28;20208;-87
2021/07/04 02:23:14;;;;;;;4.97;4.57;;;;;;;20.12;84.69;95415.66;4972888;28;20206;-86
2021/07/04 02:25:43;;;;;;;4.90;4.50;;;;;;;20.15;84.94;95417.78;4972726;28;20200;-86
2021/07/04 02:28:17;;;;;;;5.80;4.93;;;;;;;20.21;84.77;95408.16;4972187;28;20230;-86
2021/07/04 02:30:44;;;;;;;5.53;5.03;;;;;;;20.25;85.18;95409.28;4972628;28;20226;-86
2021/07/04 02:33:12;;;;;;;5.30;4.90;;;;;;;20.30;84.17;95411.97;4972200;28;20299;-86
2021/07/04 02:35:44;;;;;;;5.28;4.88;;;;;;;20.16;86.00;95403.69;4972388;28;20208;-86
2021/07/04 02:38:15;;;;;;;5.55;5.15;;;;;;;20.11;85.90;95406.22;4972351;28;20244;-87
2021/07/04 02:40:44;;;;;;;5.10;4.70;;;;;;;20.11;86.17;95411.44;4972071;28;20201;-86
2021/07/04 02:43:15;;;;;;;5.68;5.18;;;;;;;20.09;85.81;95407.47;4970676;28;20259;-87
2021/07/04 02:45:43;;;;;;;5.35;4.90;;;;;;;20.08;85.21;95409.31;4972012;28;20197;-86
2021/07/04 02:48:15;;;;;;;4.80;4.40;;;;;;;20.11;84.86;95403.59;4971635;28;20225;-86
2021/07/04 02:50:43;;;;;;;4.90;4.57;;;;;;;20.17;83.47;95412.31;4972006;28;20197;-86
2021/07/04 02:53:10;;;;;;;5.75;4.88;;;;;;;20.13;84.02;95414.63;4971666;28;20192;-86
2021/07/04 02:55:37;;;;;;;5.13;4.72;;;;;;;20.17;83.27;95418.34;4973473;28;20203;-86
2021/07/04 02:58:10;;;;;;;5.50;5.03;;;;;;;20.19;84.61;95418.09;4972138;28;20224;-87
2021/07/04 03:00:41;;;;;;;5.30;4.80;;;;;;;20.19;85.28;95418.09;4972071;28;20208;-86
2021/07/04 03:03:17;;;;;;;5.60;5.10;;;;;;;20.17;84.71;95412.31;4971965;28;20279;-87
2021/07/04 03:05:43;;;;;;;5.78;5.30;;;;;;;20.09;86.23;95410.88;4972498;28;20214;-86
2021/07/04 03:08:11;;;;;;;5.93;5.28;;;;;;;20.11;85.06;95415.88;4972024;28;20216;-86
2021/07/04 03:10:37;;;;;;;6.50;5.38;;;;;;;20.10;85.56;95419.53;4972134;28;20299;-86
2021/07/04 03:13:06;;;;;;;6.35;5.75;;;;;;;20.06;87.16;95423.63;4971504;28;20208;-87
2021/07/04 03:15:33;;;;;;;6.03;5.53;;;;;;;20.08;86.33;95418.97;4971731;28;20263;-86
2021/07/04 03:18:03;;;;;;;5.85;5.38;;;;;;;20.14;85.96;95416.19;4971083;28;20216;-87
2021/07/04 03:20:30;;;;;;;6.13;5.63;;;;;;;20.13;86.22;95414.63;4971113;28;20267;-87
2021/07/04 03:22:58;;;;;;;6.15;5.65;;;;;;;20.15;85.88;95409.16;4971273;28;20201;-87
2021/07/04 03:25:25;;;;;;;6.07;5.20;;;;;;;20.13;86.65;95409.38;4972116;28;20287;-87
2021/07/04 03:27:52;;;;;;;5.20;4.90;;;;;;;20.22;85.29;95402.69;4972488;28;20224;-86
2021/07/04 03:30:21;;;;;;;6.28;5.78;;;;;;;20.28;84.87;95408.78;4971936;28;20691;-86
2021/07/04 03:32:48;;;;;;;6.15;5.55;;;;;;;20.32;83.95;95400.25;4971621;28;20660;-86
2021/07/04 03:35:31;;;;;;;5.93;5.40;;;;;;;20.33;83.94;95407.06;4971935;28;20275;-86
2021/07/04 03:37:58;;;;;;;7.45;5.35;;;;;;;20.35;83.23;95397.13;4971044;28;20224;-86
2021/07/04 03:40:24;;;;;;;6.05;5.40;;;;;;;20.39;84.36;95394.88;4971720;28;20238;-87
2021/07/04 03:42:51;;;;;;;5.93;5.40;;;;;;;20.39;84.38;95394.06;4971764;28;20201;-86
2021/07/04 03:45:18;;;;;;;6.45;5.85;;;;;;;20.38;84.43;95395.09;4971765;28;20698;-86
2021/07/04 03:47:45;;;;;;;6.18;5.57;;;;;;;20.37;83.35;95385.69;4971761;28;20226;-86
2021/07/04 03:50:13;;;;;;;6.85;5.50;;;;;;;20.28;85.31;95388.66;4971794;28;20307;-86
2021/07/04 03:52:42;;;;;;;5.80;5.30;;;;;;;20.35;84.14;95389.28;4971512;28;20584;-86
2021/07/04 03:55:09;;;;;;;5.97;5.47;;;;;;;20.36;83.88;95390.09;4971719;28;20306;-86
2021/07/04 03:57:36;;;;;;;6.25;5.75;;;;;;;20.43;83.33;95393.31;4970768;28;20267;-85
2021/07/04 04:00:07;;;;;;;6.55;6.00;;;;;;;20.38;84.41;95387.25;4970896;28;20303;-86
2021/07/04 04:02:33;;;;;;;6.70;6.05;;;;;;;20.39;83.70;95389.63;4970712;28;20204;-86
2021/07/04 04:05:00;;;;;;;6.53;5.50;;;;;;;20.38;83.52;95384.66;4971117;28;20699;-86
2021/07/04 04:07:28;;;;;;;6.25;5.75;;;;;;;20.41;83.58;95384.94;4971121;28;20397;-86
2021/07/04 04:09:56;;;;;;;6.35;5.80;;;;;;;20.42;83.34;95377.88;4971084;28;20224;-86
2021/07/04 04:12:24;;;;;;;6.90;5.93;;;;;;;20.48;82.46;95390.78;4970936;28;20583;-86
2021/07/04 04:14:50;;;;;;;6.15;5.65;;;;;;;20.48;82.66;95388.16;4971172;28;20222;-87
2021/07/04 04:17:17;;;;;;;6.30;5.80;;;;;;;20.51;82.82;95385.06;4971183;28;20204;-86
2021/07/04 04:19:43;;;;;;;5.78;5.28;;;;;;;20.44;83.71;95384.44;4970441;28;20200;-86
2021/07/04 04:22:11;;;;;;;6.15;5.60;;;;;;;20.46;84.04;95387.63;4970563;28;20192;-86
2021/07/04 04:24:39;;;;;;;7.43;5.82;;;;;;;20.51;83.27;95382.47;4970295;28;20331;-86
2021/07/04 04:27:07;;;;;;;6.78;6.07;;;;;;;20.57;82.78;95388.56;4970892;28;20202;-86
2021/07/04 04:29:34;;;;;;;6.35;5.85;;;;;;;20.60;82.39;95390.66;4970871;28;20228;-87
2021/07/04 04:32:00;;;;;;;6.45;5.80;;;;;;;20.57;82.77;95393.78;4970935;28;20208;-86
2021/07/04 04:34:27;;;;;;;6.32;5.82;;;;;;;20.59;83.19;95396.94;4970183;28;20211;-86
2021/07/04 04:36:53;;;;;;;6.53;5.95;;;;;;;20.60;83.80;95394.06;4970783;28;20204;-86
2021/07/04 04:39:21;;;;;;;5.47;5.07;;;;;;;20.56;82.96;95393.00;4970171;28;20302;-86
2021/07/04 04:41:47;;;;;;;6.32;5.78;;;;;;;20.59;83.03;95399.56;4970478;28;20211;-86
2021/07/04 04:44:16;;;;;;;6.05;5.55;;;;;;;20.53;83.43;95401.31;4970281;28;20231;-86
2021/07/04 04:46:42;;;;;;;5.90;5.30;;;;;;;20.57;82.47;95401.63;4970221;28;20295;-86
2021/07/04 04:49:10;;;;;;;5.68;5.18;;;;;;;20.56;83.09;95394.81;4968835;28;20239;-86
2021/07/04 04:51:37;;;;;;;5.47;5.05;;;;;;;20.56;82.80;95392.19;4969966;28;20294;-86
2021/07/04 04:54:04;;;;;;;6.45;5.95;;;;;;;20.51;83.38;95392.91;4970307;28;20251;-85
2021/07/04 04:56:31;;;;;;;6.22;5.72;;;;;;;20.50;83.45;95390.53;4970354;28;20347;-86
2021/07/04 04:58:57;;;;;;;6.18;5.57;;;;;;;20.52;83.02;95389.28;4969518;28;20598;-89
2021/07/04 05:01:29;;;;;;;5.78;5.30;;;;;;;20.57;82.40;95384.13;4970210;28;20204;-86
2021/07/04 05:03:59;;;;;;;6.13;5.45;;;;;;;20.61;81.99;95389.63;4970498;28;20212;-86
2021/07/04 05:06:29;;;;;;;5.90;5.45;;;;;;;20.63;82.10;95390.97;4970778;28;20192;-85
2021/07/04 05:08:55;;;;;;;6.15;5.43;;;;;;;20.63;81.72;95390.97;4970640;28;20224;-86
2021/07/04 05:11:22;;;;;;;6.45;5.70;;;;;;;20.68;81.02;95387.63;4970361;28;20208;-86
2021/07/04 05:13:51;;;;;;;5.88;4.65;;;;;;;20.70;81.08;95393.41;4970669;28;20211;-86
2021/07/04 05:16:21;;;;;;;5.28;4.88;;;;;;;20.69;80.87;95389.22;4970158;28;20279;-87
2021/07/04 05:18:51;;;;;;;5.75;5.22;;;;;;;20.75;80.40;95382.22;4970544;28;20220;-85
2021/07/04 05:21:21;;;;;;;5.30;4.90;;;;;;;20.79;80.03;95381.47;4970178;28;20283;-86
2021/07/04 05:23:49;;;;;;;5.50;5.10;;;;;;;20.75;80.06;95380.38;4970171;28;20663;-86
2021/07/04 05:26:18;;;;;;;5.35;4.95;;;;;;;20.79;79.96;95378.84;4970387;28;20223;-86
2021/07/04 05:28:47;;;;;;;5.70;4.78;;;;;;;20.83;79.63;95374.69;4970355;28;20256;-86
2021/07/04 05:31:16;;;;;;;5.20;4.70;;;;;;;20.81;79.83;95378.59;4969946;28;20228;-86
2021/07/04 05:33:43;;;;;;;5.20;4.80;;;;;;;20.87;79.56;95372.38;4969920;28;20204;-86
2021/07/04 05:36:11;;;;;;;5.78;5.25;;;;;;;20.93;79.46;95368.81;4970210;28;20825;-86
2021/07/04 05:38:42;;;;;;;4.75;4.45;;;;;;;20.99;79.08;95371.19;4970107;28;20738;-86
2021/07/04 05:41:18;;;;;;;5.20;4.70;;;;;;;21.06;79.09;95376.25;4970626;28;20220;-86
2021/07/04 05:43:49;;;;;;;5.40;4.90;;;;;;;21.07;79.09;95364.75;4967267;28;20290;-86
2021/07/04 05:46:15;;;;;;;5.25;4.75;;;;;;;21.05;79.75;95369.44;4972652;28;20200;-86
2021/07/04 05:48:46;;;;;;;6.40;5.10;;;;;;;21.03;80.28;95366.28;4979120;28;20250;-85
2021/07/04 05:55:05;;;;;;;5.25;4.53;;;;;;;21.13;78.96;95373.44;4897256;29;20226;-86
2021/07/04 06:02:16;;;;;;;4.88;4.47;;;;;;;21.03;79.18;95368.88;4822955;29;20213;-86
2021/07/04 06:08:46;;;;;;;4.70;4.40;;;;;;;20.96;79.83;95369.09;4888521;29;20227;-86
2021/07/04 06:12:02;;;;;;;5.32;4.72;;;;;;;20.91;80.59;95371.66;4874142;29;20266;-87
2021/07/04 06:14:37;;;;;;;5.03;4.50;;;;;;;20.84;79.78;95362.41;4959389;28;20263;-87
2021/07/04 06:17:30;;;;;;;4.50;4.10;;;;;;;20.86;79.82;95361.13;4954671;28;20352;-85
2021/07/04 06:26:06;;;;;;;4.88;4.47;;;;;;;20.97;78.94;95365.41;4962593;28;20935;-86
2021/07/04 06:34:43;;;;;;;4.93;4.53;;;;;;;21.12;77.28;95362.19;4902498;29;20210;-88
2021/07/04 06:52:14;;;;;;;5.00;4.60;;;;;;;21.32;79.64;95346.69;4950697;29;20221;-85
2021/07/04 06:54:41;;;;;;;4.90;4.50;;;;;;;21.25;79.03;95347.91;4952089;28;20259;-85
2021/07/04 07:00:15;;;;;;;4.70;4.30;;;;;;;21.14;77.89;95348.84;4931058;29;20201;-84
2021/07/04 07:02:46;;;;;;;4.80;4.40;;;;;;;21.13;77.61;95349.88;4933764;29;20243;-84
2021/07/04 07:05:23;;;;;;;6.93;4.25;;;;;;;21.09;77.94;95346.97;4934251;29;20565;-86
2021/07/04 07:07:51;;;;;;;4.72;4.32;;;;;;;21.08;79.06;95352.44;4934287;29;20233;-84
2021/07/04 07:10:18;;;;;;;5.15;4.68;;;;;;;21.00;80.13;95343.19;4933861;29;20697;-85
2021/07/04 07:12:44;;;;;;;4.90;4.22;;;;;;;21.15;80.09;95353.84;4933658;29;20750;-85
2021/07/04 07:15:12;;;;;;;4.50;4.15;;;;;;;21.15;79.68;95348.59;4933992;29;20229;-85
2021/07/04 07:17:39;;;;;;;4.40;4.10;;;;;;;21.15;79.77;95358.28;4933492;29;20225;-85
2021/07/04 07:20:08;;;;;;;4.80;4.40;;;;;;;21.20;79.14;95347.88;4933037;29;20208;-84
2021/07/04 07:22:35;;;;;;;5.05;4.65;;;;;;;21.22;79.40;95341.34;4933617;29;20220;-85
2021/07/04 07:25:03;;;;;;;4.97;4.57;;;;;;;21.15;80.75;95340.75;4933356;29;20206;-85
2021/07/04 07:27:29;;;;;;;5.05;4.53;;;;;;;21.13;79.42;95339.41;4933118;29;20236;-84
2021/07/04 07:29:56;;;;;;;4.38;3.97;;;;;;;21.21;78.01;95346.81;4933490;29;20312;-84
2021/07/04 07:32:22;;;;;;;4.18;3.88;;;;;;;21.28;77.49;95336.94;4933395;29;20673;-85
2021/07/04 07:34:53;;;;;;;4.32;3.92;;;;;;;21.44;76.49;95335.25;4933563;29;20252;-85
2021/07/04 07:37:22;;;;;;;4.63;4.22;;;;;;;21.60;75.94;95329.06;4932596;29;20201;-84
2021/07/04 07:39:48;;;;;;;4.60;4.20;;;;;;;21.63;77.31;95331.97;4932497;29;20212;-85
2021/07/04 07:42:16;;;;;;;4.07;3.78;;;;;;;21.63;75.23;95333.81;4932085;29;20204;-85
2021/07/04 07:44:43;;;;;;;3.90;3.60;;;;;;;21.66;74.94;95326.25;4931473;29;20198;-85
2021/07/04 07:47:10;;;;;;;3.90;3.60;;;;;;;21.69;74.00;95311.84;4932324;29;20562;-85
2021/07/04 07:49:36;;;;;;;3.88;3.50;;;;;;;21.76;73.23;95301.13;4932614;29;20201;-83
2021/07/04 07:52:04;;;;;;;4.00;3.70;;;;;;;21.72;74.50;95298.25;4932650;29;20221;-84
2021/07/04 07:54:31;;;;;;;14.32;12.93;;;;;;;21.73;70.35;95297.19;4933190;29;20213;-85
2021/07/04 07:57:01;;;;;;;6.00;5.40;;;;;;;21.89;71.44;95293.63;4932344;28;20316;-84
2021/07/04 07:59:30;;;;;;;3.63;3.33;;;;;;;21.87;72.62;95308.81;4932763;29;20225;-84
2021/07/04 08:01:57;;;;;;;3.53;3.22;;;;;;;21.82;70.16;95308.78;4932749;29;20202;-83
2021/07/04 08:04:23;;;;;;;3.42;3.13;;;;;;;21.61;71.14;95310.47;4932396;29;20206;-85
2021/07/04 08:06:50;;;;;;;3.45;3.15;;;;;;;21.48;72.14;95310.91;4932783;29;20685;-84
2021/07/04 08:09:16;;;;;;;8.30;7.43;;;;;;;21.50;72.90;95305.44;4931559;29;20337;-84
2021/07/04 08:11:46;;;;;;;4.00;3.70;;;;;;;21.46;72.42;95320.06;4932447;29;20731;-84
2021/07/04 08:14:14;;;;;;;3.05;2.85;;;;;;;21.50;70.13;95315.91;4931984;29;20217;-84
2021/07/04 08:16:42;;;;;;;3.08;2.63;;;;;;;21.45;70.40;95319.28;4932021;29;20209;-84
2021/07/04 08:19:09;;;;;;;2.45;2.25;;;;;;;21.34;67.56;95313.19;4931966;29;20218;-84
2021/07/04 08:21:35;;;;;;;2.10;2.00;;;;;;;21.17;67.96;95306.44;4931287;29;20276;-85
2021/07/04 08:24:02;;;;;;;2.63;2.22;;;;;;;20.96;68.45;95302.88;4933017;29;20201;-84
2021/07/04 08:26:31;;;;;;;3.22;2.20;;;;;;;20.99;70.36;95284.03;4933871;29;20578;-84
2021/07/04 08:28:57;;;;;;;2.85;2.00;;;;;;;21.01;68.94;95276.72;4933783;29;20312;-84
2021/07/04 08:31:25;;;;;;;2.10;2.00;;;;;;;21.04;68.33;95268.38;4934919;29;20245;-83
2021/07/04 08:33:53;;;;;;;2.20;2.00;;;;;;;21.22;67.89;95259.38;4933789;29;20209;-84
2021/07/04 08:36:20;;;;;;;2.10;2.00;;;;;;;21.49;67.84;95249.63;4932852;29;20206;-84
2021/07/04 08:38:47;;;;;;;4.65;2.20;;;;;;;21.80;67.37;95244.53;4932541;29;20217;-84
2021/07/04 08:41:15;;;;;;;2.45;2.30;;;;;;;21.96;67.57;95241.72;4932911;29;20224;-83
2021/07/04 08:43:42;;;;;;;2.35;2.15;;;;;;;21.96;66.84;95244.34;4931535;29;20718;-84
2021/07/04 08:46:17;;;;;;;2.80;2.40;;;;;;;22.20;65.03;95251.81;4934474;29;20201;-85
2021/07/04 08:48:44;;;;;;;4.78;3.13;;;;;;;22.30;63.54;95251.88;4932575;29;20638;-84
2021/07/04 08:51:12;;;;;;;3.10;2.80;;;;;;;22.21;62.41;95256.81;4932847;29;20221;-83
2021/07/04 08:53:40;;;;;;;2.33;2.13;;;;;;;22.17;62.46;95250.50;4932016;29;20237;-85
2021/07/04 08:56:07;;;;;;;2.20;2.10;;;;;;;22.21;62.71;95250.78;4931637;28;20237;-84
2021/07/04 08:58:34;;;;;;;2.78;2.38;;;;;;;22.34;63.26;95247.66;4932375;29;20893;-83
2021/07/04 09:01:15;;;;;;;4.00;2.13;;;;;;;22.52;61.68;95243.75;4933674;29;20225;-81
2021/07/04 09:03:45;;;;;;;2.30;2.10;;;;;;;22.48;61.02;95240.09;4937753;29;20208;-84
2021/07/04 09:06:13;;;;;;;1.70;1.60;;;;;;;22.60;59.71;95235.41;4938225;29;20202;-83
2021/07/04 09:08:40;;;;;;;3.10;1.90;;;;;;;22.73;59.47;95235.66;4935348;29;20229;-85
2021/07/04 09:11:15;;;;;;;1.80;1.70;;;;;;;22.83;58.22;95242.03;4930526;29;20701;-85
2021/07/04 09:13:44;;;;;;;1.60;1.50;;;;;;;22.82;58.32;95250.94;4931073;29;20212;-85
2021/07/04 09:16:39;;;;;;;1.92;1.80;;;;;;;22.82;55.86;95243.06;4928811;29;20673;-87
2021/07/04 09:19:10;;;;;;;1.77;1.67;;;;;;;22.97;56.11;95243.06;4931506;29;20231;-87
2021/07/04 09:21:39;;;;;;;1.80;1.70;;;;;;;23.32;56.20;95232.56;4936485;29;20284;-87
2021/07/04 09:24:24;;;;;;;2.42;1.80;;;;;;;23.35;54.25;95242.53;4936728;29;20212;-88
2021/07/04 09:26:52;;;;;;;2.20;1.80;;;;;;;23.62;56.13;95247.53;4936428;29;20295;-86
2021/07/04 09:29:41;;;;;;;2.28;2.13;;;;;;;23.47;56.56;95247.53;4935976;29;20225;-87
2021/07/04 09:32:25;;;;;;;3.17;2.20;;;;;;;23.71;57.89;95245.13;4936089;29;20224;-86
2021/07/04 09:35:06;;;;;;;3.38;3.13;;;;;;;23.71;56.63;95238.03;4936750;29;20197;-87
2021/07/04 09:37:46;;;;;;;2.15;2.00;;;;;;;23.65;55.27;95236.47;4936248;29;20300;-87
2021/07/04 09:40:32;;;;;;;2.40;2.20;;;;;;;23.92;56.97;95233.50;4935706;29;20735;-86
2021/07/04 09:43:30;;;;;;;2.20;2.00;;;;;;;24.21;55.05;95228.38;4937131;29;20252;-88
2021/07/04 09:45:59;;;;;;;2.28;2.10;;;;;;;24.22;54.56;95223.91;4917169;29;20233;-87
2021/07/04 09:48:43;;;;;;;2.10;2.00;;;;;;;24.20;55.31;95216.28;4917607;29;20914;-88
2021/07/04 09:51:17;;;;;;;2.10;1.88;;;;;;;23.87;54.77;95219.56;4934102;29;20220;-85
2021/07/04 09:53:48;;;;;;;2.17;2.08;;;;;;;23.67;55.93;95223.84;4936415;29;20205;-85
2021/07/04 09:56:18;;;;;;;2.05;1.95;;;;;;;23.74;56.74;95219.09;4935671;28;20244;-86
2021/07/04 09:58:46;;;;;;;2.25;2.15;;;;;;;23.77;56.46;95225.66;4936118;29;20229;-84
2021/07/04 10:01:30;;;;;;;2.17;1.98;;;;;;;23.87;56.53;95224.81;4935677;29;20921;-85
2021/07/04 10:03:57;;;;;;;2.17;2.08;;;;;;;24.02;57.00;95224.78;4936250;29;20235;-84
2021/07/04 10:06:23;;;;;;;1.90;1.80;;;;;;;24.31;56.16;95209.94;4936246;29;20304;-84
2021/07/04 10:08:51;;;;;;;1.98;1.88;;;;;;;24.79;55.47;95215.44;4935827;29;20231;-84
2021/07/04 10:11:18;;;;;;;1.83;1.73;;;;;;;25.12;52.75;95209.41;4935617;29;20327;-85
2021/07/04 10:13:47;;;;;;;1.73;1.63;;;;;;;25.16;50.89;95209.63;4936593;29;20212;-85
2021/07/04 10:16:16;;;;;;;1.70;1.60;;;;;;;25.17;50.88;95205.94;4936075;29;20245;-84
2021/07/04 10:18:44;;;;;;;1.70;1.60;;;;;;;25.00;51.38;95210.81;4936139;29;20225;-85
2021/07/04 10:21:12;;;;;;;2.00;1.90;;;;;;;24.90;51.89;95190.56;4936507;29;20211;-85
2021/07/04 10:23:43;;;;;;;1.70;1.60;;;;;;;24.95;52.38;95195.84;4936356;29;20201;-84
2021/07/04 10:26:12;;;;;;;1.80;1.70;;;;;;;25.30;51.70;95186.81;4936497;29;20874;-84
2021/07/04 10:28:41;;;;;;;1.80;1.70;;;;;;;25.52;51.40;95169.75;4936292;29;20237;-84
2021/07/04 10:31:10;;;;;;;2.05;1.90;;;;;;;25.54;51.52;95164.97;4934392;29;20232;-84
2021/07/04 10:33:37;;;;;;;2.25;2.03;;;;;;;25.89;51.32;95158.53;4933504;29;20216;-85
2021/07/04 10:36:20;;;;;;;2.55;2.35;;;;;;;25.85;51.32;95152.25;4934053;29;20205;-84
2021/07/04 10:38:54;;;;;;;1.67;1.58;;;;;;;25.76;48.60;95147.59;4932870;29;20221;-85
2021/07/04 10:41:25;;;;;;;2.80;1.83;;;;;;;25.46;49.27;95153.19;4933479;29;20284;-84
2021/07/04 10:43:56;;;;;;;1.80;1.70;;;;;;;25.25;50.26;95142.06;4933331;29;20211;-83
2021/07/04 10:47:15;;;;;;;3.95;2.20;;;;;;;25.20;50.43;95144.78;4933203;29;20296;-85
2021/07/04 10:49:54;;;;;;;1.98;1.88;;;;;;;25.25;50.31;95149.97;4932244;29;20729;-84
2021/07/04 10:52:49;;;;;;;2.30;2.10;;;;;;;25.17;51.05;95153.25;4932720;29;20264;-84
2021/07/04 10:55:28;;;;;;;2.90;2.20;;;;;;;25.01;52.21;95152.59;4920624;29;20202;-84
2021/07/04 10:58:04;;;;;;;8.68;7.90;;;;;;;24.95;50.68;95147.66;4935640;29;20213;-84
2021/07/04 11:00:36;;;;;;;12.85;11.65;;;;;;;25.06;51.55;95138.56;4934613;29;20257;-83
2021/07/04 11:03:05;;;;;;;5.32;4.82;;;;;;;25.22;52.18;95128.66;4935765;29;20209;-84
2021/07/04 11:05:46;;;;;;;4.00;3.70;;;;;;;25.25;51.30;95134.16;4932509;29;20206;-85
2021/07/04 11:08:16;;;;;;;3.03;2.22;;;;;;;25.14;51.99;95130.06;4933889;29;20217;-84
2021/07/04 11:10:54;;;;;;;3.13;2.40;;;;;;;25.15;52.07;95133.50;4936354;29;20290;-84
2021/07/04 11:13:45;;;;;;;2.97;2.78;;;;;;;25.15;53.24;95129.00;4936776;28;20244;-84
2021/07/04 11:16:31;;;;;;;3.55;2.70;;;;;;;25.21;53.81;95135.03;4938996;29;20213;-85
2021/07/04 11:19:09;;;;;;;26.60;24.02;;;;;;;25.14;52.41;95122.16;4936355;29;20814;-85
2021/07/04 11:21:56;;;;;;;12.15;11.05;;;;;;;25.03;52.84;95128.59;4936188;29;20565;-83
2021/07/04 11:24:25;;;;;;;2.67;2.47;;;;;;;24.93;52.83;95132.09;4936902;29;20237;-84
2021/07/04 11:27:24;;;;;;;3.20;2.90;;;;;;;24.92;54.25;95124.47;4938084;29;20581;-83
2021/07/04 11:30:24;;;;;;;2.50;2.30;;;;;;;25.25;52.61;95114.94;4917328;29;20206;-85
2021/07/04 11:33:24;;;;;;;2.25;2.05;;;;;;;25.35;52.25;95112.19;4904405;29;20321;-83
2021/07/04 11:35:51;;;;;;;2.20;2.10;;;;;;;25.30;51.98;95109.59;4918002;29;20234;-83
2021/07/04 11:38:19;;;;;;;2.00;1.90;;;;;;;25.31;51.72;95093.53;4930839;29;20226;-85
2021/07/04 11:40:47;;;;;;;2.55;2.00;;;;;;;25.37;52.04;95096.88;4937855;29;20205;-82
2021/07/04 11:43:14;;;;;;;2.30;2.10;;;;;;;25.45;52.29;95096.25;4936529;29;20236;-86
2021/07/04 11:45:49;;;;;;;2.13;2.03;;;;;;;25.75;51.79;95092.50;4938267;29;20198;-82
2021/07/04 11:48:16;;;;;;;2.67;2.40;;;;;;;25.86;51.75;95093.91;4939235;29;20255;-84
2021/07/04 11:50:51;;;;;;;2.70;2.50;;;;;;;25.69;51.59;95101.53;4937102;29;20216;-84
2021/07/04 11:53:18;;;;;;;2.00;1.90;;;;;;;25.39;51.50;95097.41;4936348;29;20216;-84
2021/07/04 11:56:01;;;;;;;2.45;2.25;;;;;;;25.23;52.72;95096.75;4933348;28;20213;-81
2021/07/04 11:58:29;;;;;;;2.78;2.50;;;;;;;25.14;53.30;95093.19;4934387;29;20759;-81
2021/07/04 12:00:57;;;;;;;2.35;2.20;;;;;;;25.08;54.11;95089.03;4933899;29;20602;-82
2021/07/04 12:03:26;;;;;;;2.10;2.00;;;;;;;25.06;53.78;95086.66;4933868;29;20202;-81
2021/07/04 12:06:04;;;;;;;2.00;1.90;;;;;;;25.07;54.00;95087.44;4934304;29;20231;-84
2021/07/04 12:08:30;;;;;;;2.40;2.20;;;;;;;25.09;54.98;95077.41;4915933;29;20740;-82
2021/07/04 12:10:57;;;;;;;2.55;2.35;;;;;;;25.01;54.71;95083.31;4914719;29;20216;-84
2021/07/04 12:13:23;;;;;;;2.40;2.20;;;;;;;25.12;54.84;95077.66;4915817;29;20202;-83
2021/07/04 12:15:51;;;;;;;2.50;2.30;;;;;;;25.25;55.18;95070.13;4914968;29;20213;-81
2021/07/04 12:18:21;;;;;;;2.50;2.30;;;;;;;25.35;53.61;95055.00;4917058;29;20226;-83
2021/07/04 12:20:52;;;;;;;2.45;2.25;;;;;;;25.27;53.94;95057.47;4933256;29;20194;-83
2021/07/04 12:23:19;;;;;;;2.38;2.28;;;;;;;25.25;53.17;95056.94;4934124;29;20216;-83
2021/07/04 12:25:46;;;;;;;2.15;2.05;;;;;;;25.32;52.71;95057.41;4933908;29;20282;-84
2021/07/04 12:28:14;;;;;;;2.20;2.00;;;;;;;25.45;52.99;95043.53;4934025;29;20229;-82
2021/07/04 12:30:42;;;;;;;2.35;2.15;;;;;;;25.43;52.32;95053.56;4933591;29;20221;-83
2021/07/04 12:33:11;;;;;;;2.33;2.20;;;;;;;25.41;52.10;95047.78;4934295;29;20229;-84
2021/07/04 12:35:43;;;;;;;2.33;2.13;;;;;;;25.17;51.69;95039.94;4933876;29;20209;-84
2021/07/04 12:38:14;;;;;;;2.15;2.00;;;;;;;25.10;51.28;95042.91;4933364;29;20260;-81
2021/07/04 12:40:51;;;;;;;2.33;2.20;;;;;;;25.04;51.93;95036.09;4932839;29;20205;-84